Monday, November 20, 2017, 4:20 AM EST

KOXB, Ocean City Municipal Airport

Location: Berlin, MD, United States Lat: 38.317
Local Time: 4:20 AM EST ( 9:20 GMT) Lon: -75.117
Time Zone: US/Eastern Elev: 13 ft

Show me the last for .
Show Decoded

2017-11-20 03:53 METAR KOXB 200853Z AUTO 32010KT 10SM CLR 05/M04 A3004 RMK AO2 SLP172 T00501044
                 51022 =
2017-11-20 02:53 METAR KOXB 200753Z AUTO 30010G20KT 10SM BKN065 06/M03 A3003 RMK AO2 SLP170
                 T00611033 =
2017-11-20 01:53 METAR KOXB 200653Z AUTO 26006KT 10SM OVC070 04/M01 A3001 RMK AO2 SLP160
                 T00441011 =
2017-11-20 00:53 METAR KOXB 200553Z AUTO 27004KT 10SM FEW070 04/M02 A2998 RMK AO2 SLP150
                 T00391017 10072 20039 51017 =
2017-11-19 23:53 METAR KOXB 200453Z AUTO 27005KT 10SM CLR 04/M02 A2996 RMK AO2 SLP145 T00391022
                 401610039 =
2017-11-19 22:53 METAR KOXB 200353Z AUTO 27005KT 10SM CLR 05/M03 A2994 RMK AO2 SLP139 T00501028 =
2017-11-19 21:53 METAR KOXB 200253Z AUTO 30006KT 10SM FEW070 06/M03 A2993 RMK AO2 SLP133
                 T00611028 51026 =
2017-11-19 20:53 METAR KOXB 200153Z AUTO 31005KT 10SM SCT070 07/M03 A2990 RMK AO2 SLP126
                 T00671033 =
2017-11-19 19:53 METAR KOXB 200053Z AUTO 29010KT 10SM CLR 07/M02 A2988 RMK AO2 SLP119 T00671022 =
2017-11-19 18:53 METAR KOXB 192353Z AUTO 31007KT 10SM CLR 07/M02 A2985 RMK AO2 SLP107 T00671022
                 10128 20067 51046 =
2017-11-19 17:53 METAR KOXB 192253Z AUTO 31008KT 10SM CLR 07/M01 A2981 RMK AO2 SLP095 T00721011 =
2017-11-19 16:53 METAR KOXB 192153Z AUTO 32011G25KT 10SM CLR 09/M01 A2977 RMK AO2 SLP080
                 T00891011 =
2017-11-19 15:53 METAR KOXB 192053Z AUTO 31015G26KT 10SM CLR 11/00 A2971 RMK AO2 PK WND
                 30028/2039 SLP061 T01060000 53024 =
2017-11-19 14:53 METAR KOXB 191953Z AUTO 30013G21KT 10SM CLR 12/01 A2968 RMK AO2 PK WND
                 31028/1859 SLP051 T01170011 =
2017-11-19 13:53 METAR KOXB 191853Z AUTO 31017G28KT 10SM CLR 12/01 A2966 RMK AO2 PK WND
                 30031/1810 SLP044 T01220011 =
2017-11-19 12:53 METAR KOXB 191753Z AUTO 32019G30KT 10SM CLR 13/02 A2964 RMK AO2 PK WND
                 29032/1654 SLP037 60000 T01280017 10156 20111 51014 =
2017-11-19 11:53 METAR KOXB 191653Z AUTO 30017G29KT 10SM CLR 12/02 A2964 RMK AO2 PK WND
                 32029/1555 SLP035 T01220022 =
2017-11-19 10:53 METAR KOXB 191553Z AUTO 32015G27KT 10SM CLR 12/02 A2963 RMK AO2 PK WND
                 30038/1459 SLP035 T01220022 =
2017-11-19 09:53 METAR KOXB 191453Z AUTO 32020G35KT 10SM CLR 12/02 A2960 RMK AO2 PK WND
                 31036/1416 SLP023 60000 T01170022 51057 =
2017-11-19 08:53 METAR KOXB 191353Z AUTO 33021G26KT 10SM CLR 12/04 A2957 RMK AO2 PK WND
                 29032/1310 SLP014 T01170039 =
2017-11-19 07:53 METAR KOXB 191253Z AUTO 32013G21KT 10SM FEW022 BKN055 OVC090 12/08 A2951 RMK AO2
                 PK WND 33035/1241 WSHFT 1233 RAE1156 SLP991 P0000 T01220078 =
2017-11-19 06:53 METAR KOXB 191153Z AUTO 25017G27KT 10SM -RA FEW050 BKN065 OVC090 15/14 A2943 RMK
                 AO2 PK WND 26027/1149 SLP967 P0004 60009 70009 T01500139 10161 20139 53003 =
2017-11-19 05:53 METAR KOXB 191053Z AUTO 23016G23KT 8SM -RA FEW027 SCT070 OVC090 14/13 A2942 RMK
                 AO2 PK WND 22031/1000 RAB04 SLP964 P0005 T01440133 =
2017-11-19 04:53 METAR KOXB 190953Z AUTO 22020G27KT 10SM SCT042 BKN055 OVC085 16/13 A2942 RMK AO2
                 PK WND 22031/0938 RAB36E46 SLP961 P0000 T01560128 =

Support USWX by starting your Amazon purchase here.